Terminal Aerodrome Forecast
Issued by NWS Atlanta, GA

Home | Current Version | Previous Version | Text Only | Print | Product List | Glossary On
Versions: 1 2 3 4 5 6 7 8 9 10 11 12 13 14 15 16 17 18 19 20 21 22 23 24 25 26 27 28 29 30 31 32 33 34 35 36 37 38 39 40 41 42 43 44 45 46 47 48 49
000
FTUS42 KFFC 071931 AAA
TAFAHN
TAF AMD
KAHN 071931Z 0720/0818 25003KT P6SM FEW012
     FM080200 28004KT P6SM BKN012
     FM081100 27004KT P6SM SCT012 BKN080
     FM081500 30008KT P6SM SCT090 BKN120=

USA.gov is the U.S. government's official web portal to all federal, state and local government web resources and services.